North Lebanon, Pennsylvania
Current Conditions -  °F | °C
As of 12:14 AM on Tuesday 23 Dec 2014 (Local Time) from KMUI Reporting Station
Drizzle Drizzle  
Wind Chill: 36°   Ceiling: 800
Heat Index: 39°   Visibility: 9mi
Dew Point: 37°   Wind: 5mph
Humidity: 93%   Direction: 60°ENE
Pressure: 30.1"   Gusts: NA
Location:  40.2957°N, 76.4189°W
Report Text: KMUI 230514Z AUTO 06004KT 9SM -DZ OVC008 04/03 A3010 RMK AO2
Loading
Personal Weather Stations






























Interactive Weather Map New forecast layout! Learn more

10-Day Weather Forecast

Advertisements
Track Severe Weather on mobile